sensor_id;sensor_type;location;lat;lon;timestamp;pressure;altitude;pressure_sealevel;temperature;humidity
45285;BME280;31026;43.780;25.948;2023-06-19T00:01:34;100626.16;;;23.13;67.15
45285;BME280;31026;43.780;25.948;2023-06-19T00:04:02;100649.75;;;23.11;67.41
45285;BME280;31026;43.780;25.948;2023-06-19T00:06:31;100627.50;;;23.09;67.09
45285;BME280;31026;43.780;25.948;2023-06-19T00:08:59;100632.91;;;23.17;66.90
45285;BME280;31026;43.780;25.948;2023-06-19T00:11:30;100622.63;;;23.04;67.08
45285;BME280;31026;43.780;25.948;2023-06-19T00:13:58;100624.09;;;22.98;67.13
45285;BME280;31026;43.780;25.948;2023-06-19T00:16:26;100632.03;;;23.00;67.42
45285;BME280;31026;43.780;25.948;2023-06-19T00:18:55;100621.09;;;23.10;67.52
45285;BME280;31026;43.780;25.948;2023-06-19T00:21:23;100638.47;;;23.15;67.05
45285;BME280;31026;43.780;25.948;2023-06-19T00:23:52;100632.91;;;23.17;66.96
45285;BME280;31026;43.780;25.948;2023-06-19T00:26:21;100625.09;;;22.97;67.25
45285;BME280;31026;43.780;25.948;2023-06-19T00:28:53;100634.09;;;23.06;67.30
45285;BME280;31026;43.780;25.948;2023-06-19T00:31:21;100622.63;;;23.04;67.47
45285;BME280;31026;43.780;25.948;2023-06-19T00:33:49;100637.13;;;23.11;67.39
45285;BME280;31026;43.780;25.948;2023-06-19T00:36:18;100642.00;;;23.08;67.32
45285;BME280;31026;43.780;25.948;2023-06-19T00:38:48;100647.72;;;23.05;67.31
45285;BME280;31026;43.780;25.948;2023-06-19T00:41:17;100646.03;;;23.03;66.96
45285;BME280;31026;43.780;25.948;2023-06-19T00:43:45;100637.09;;;23.03;67.00
45285;BME280;31026;43.780;25.948;2023-06-19T00:46:16;100646.31;;;22.92;67.15
45285;BME280;31026;43.780;25.948;2023-06-19T00:48:45;100648.81;;;22.86;67.58
45285;BME280;31026;43.780;25.948;2023-06-19T00:51:13;100649.34;;;22.89;67.56
45285;BME280;31026;43.780;25.948;2023-06-19T00:53:41;100644.66;;;22.99;67.45
45285;BME280;31026;43.780;25.948;2023-06-19T00:56:09;100632.34;;;22.97;67.73
45285;BME280;31026;43.780;25.948;2023-06-19T00:58:38;100655.09;;;22.94;67.52
45285;BME280;31026;43.780;25.948;2023-06-19T01:01:06;100642.59;;;22.93;67.73
45285;BME280;31026;43.780;25.948;2023-06-19T01:03:37;100639.25;;;22.99;67.40
45285;BME280;31026;43.780;25.948;2023-06-19T01:06:06;100638.03;;;22.94;67.66
45285;BME280;31026;43.780;25.948;2023-06-19T01:08:43;100633.84;;;22.91;67.66
45285;BME280;31026;43.780;25.948;2023-06-19T01:11:15;100647.88;;;23.03;67.35
45285;BME280;31026;43.780;25.948;2023-06-19T01:13:47;100635.19;;;22.95;67.57
45285;BME280;31026;43.780;25.948;2023-06-19T01:16:16;100630.16;;;22.92;67.54
45285;BME280;31026;43.780;25.948;2023-06-19T01:18:47;100638.41;;;22.99;67.25
45285;BME280;31026;43.780;25.948;2023-06-19T01:21:16;100626.44;;;22.93;67.44
45285;BME280;31026;43.780;25.948;2023-06-19T01:23:48;100645.28;;;22.85;67.77
45285;BME280;31026;43.780;25.948;2023-06-19T01:26:16;100636.50;;;22.83;67.59
45285;BME280;31026;43.780;25.948;2023-06-19T01:28:45;100640.25;;;22.82;67.79
45285;BME280;31026;43.780;25.948;2023-06-19T01:31:15;100641.06;;;22.82;67.50
45285;BME280;31026;43.780;25.948;2023-06-19T01:33:45;100630.94;;;22.76;67.80
45285;BME280;31026;43.780;25.948;2023-06-19T01:36:15;100632.31;;;22.80;67.53
45285;BME280;31026;43.780;25.948;2023-06-19T01:38:43;100629.25;;;22.75;67.81
45285;BME280;31026;43.780;25.948;2023-06-19T01:41:15;100637.84;;;22.79;67.63
45285;BME280;31026;43.780;25.948;2023-06-19T01:43:43;100635.16;;;22.79;67.37
45285;BME280;31026;43.780;25.948;2023-06-19T01:46:13;100642.59;;;22.85;67.31
45285;BME280;31026;43.780;25.948;2023-06-19T01:48:41;100627.44;;;22.84;67.37
45285;BME280;31026;43.780;25.948;2023-06-19T01:51:10;100639.03;;;22.76;67.67
45285;BME280;31026;43.780;25.948;2023-06-19T01:53:38;100638.50;;;22.73;67.53
45285;BME280;31026;43.780;25.948;2023-06-19T01:56:07;100631.06;;;22.67;67.58
45285;BME280;31026;43.780;25.948;2023-06-19T01:58:38;100652.31;;;22.70;67.71
45285;BME280;31026;43.780;25.948;2023-06-19T02:01:06;100655.53;;;22.73;67.76
45285;BME280;31026;43.780;25.948;2023-06-19T02:03:35;100655.75;;;22.88;67.12
45285;BME280;31026;43.780;25.948;2023-06-19T02:06:03;100663.88;;;22.96;67.01
45285;BME280;31026;43.780;25.948;2023-06-19T02:08:32;100660.41;;;22.78;67.62
45285;BME280;31026;43.780;25.948;2023-06-19T02:11:00;100663.09;;;22.70;67.60
45285;BME280;31026;43.780;25.948;2023-06-19T02:13:29;100661.06;;;22.72;67.76
45285;BME280;31026;43.780;25.948;2023-06-19T02:15:59;100666.53;;;22.88;67.47
45285;BME280;31026;43.780;25.948;2023-06-19T02:18:28;100670.56;;;22.84;67.67
45285;BME280;31026;43.780;25.948;2023-06-19T02:20:56;100676.66;;;22.94;67.43
45285;BME280;31026;43.780;25.948;2023-06-19T02:23:24;100679.38;;;22.94;67.22
45285;BME280;31026;43.780;25.948;2023-06-19T02:25:53;100681.66;;;22.81;67.50
45285;BME280;31026;43.780;25.948;2023-06-19T02:28:21;100676.59;;;22.78;67.17
45285;BME280;31026;43.780;25.948;2023-06-19T02:30:49;100681.50;;;22.74;67.45
45285;BME280;31026;43.780;25.948;2023-06-19T02:33:20;100693.09;;;22.75;67.76
45285;BME280;31026;43.780;25.948;2023-06-19T02:35:49;100672.94;;;22.87;67.50
45285;BME280;31026;43.780;25.948;2023-06-19T02:38:17;100685.34;;;22.80;67.78
45285;BME280;31026;43.780;25.948;2023-06-19T02:40:46;100697.31;;;22.77;67.54
45285;BME280;31026;43.780;25.948;2023-06-19T02:43:14;100687.34;;;22.70;67.80
45285;BME280;31026;43.780;25.948;2023-06-19T02:45:43;100703.25;;;22.89;67.46
45285;BME280;31026;43.780;25.948;2023-06-19T02:48:11;100699.56;;;22.82;67.43
45285;BME280;31026;43.780;25.948;2023-06-19T02:50:42;100694.09;;;22.74;67.76
45285;BME280;31026;43.780;25.948;2023-06-19T02:53:10;100699.72;;;22.80;67.87
45285;BME280;31026;43.780;25.948;2023-06-19T02:55:39;100696.13;;;22.80;67.55
45285;BME280;31026;43.780;25.948;2023-06-19T02:58:07;100704.19;;;22.72;68.09
45285;BME280;31026;43.780;25.948;2023-06-19T03:00:36;100700.16;;;22.76;67.96
45285;BME280;31026;43.780;25.948;2023-06-19T03:03:04;100701.63;;;22.96;67.66
45285;BME280;31026;43.780;25.948;2023-06-19T03:05:33;100691.81;;;22.87;67.37
45285;BME280;31026;43.780;25.948;2023-06-19T03:08:04;100698.50;;;22.75;67.80
45285;BME280;31026;43.780;25.948;2023-06-19T03:10:32;100701.16;;;22.67;67.96
45285;BME280;31026;43.780;25.948;2023-06-19T03:13:00;100696.91;;;22.64;67.81
45285;BME280;31026;43.780;25.948;2023-06-19T03:15:29;100717.69;;;22.72;67.91
45285;BME280;31026;43.780;25.948;2023-06-19T03:17:57;100712.97;;;22.74;67.81
45285;BME280;31026;43.780;25.948;2023-06-19T03:20:28;100715.38;;;22.85;67.59
45285;BME280;31026;43.780;25.948;2023-06-19T03:22:57;100713.50;;;22.77;67.51
45285;BME280;31026;43.780;25.948;2023-06-19T03:25:27;100724.13;;;22.79;67.71
45285;BME280;31026;43.780;25.948;2023-06-19T03:27:59;100720.75;;;22.77;67.67
45285;BME280;31026;43.780;25.948;2023-06-19T03:30:28;100721.63;;;22.86;67.73
45285;BME280;31026;43.780;25.948;2023-06-19T03:32:56;100734.53;;;22.74;67.86
45285;BME280;31026;43.780;25.948;2023-06-19T03:35:25;100729.97;;;22.66;67.88
45285;BME280;31026;43.780;25.948;2023-06-19T03:37:53;100728.16;;;22.75;67.98
45285;BME280;31026;43.780;25.948;2023-06-19T03:40:22;100729.63;;;22.69;67.65
45285;BME280;31026;43.780;25.948;2023-06-19T03:42:53;100746.00;;;22.76;67.58
45285;BME280;31026;43.780;25.948;2023-06-19T03:45:21;100747.38;;;22.80;67.37
45285;BME280;31026;43.780;25.948;2023-06-19T03:47:49;100749.88;;;22.73;67.43
45285;BME280;31026;43.780;25.948;2023-06-19T03:50:18;100745.00;;;22.77;67.46
45285;BME280;31026;43.780;25.948;2023-06-19T03:52:46;100745.00;;;22.77;67.28
45285;BME280;31026;43.780;25.948;2023-06-19T03:55:14;100758.50;;;22.77;67.41
45285;BME280;31026;43.780;25.948;2023-06-19T03:57:43;100750.56;;;22.75;67.52
45285;BME280;31026;43.780;25.948;2023-06-19T04:00:14;100738.53;;;22.61;68.26
45285;BME280;31026;43.780;25.948;2023-06-19T04:02:43;100742.31;;;22.77;67.86
45285;BME280;31026;43.780;25.948;2023-06-19T04:05:11;100716.06;;;22.87;67.62
45285;BME280;31026;43.780;25.948;2023-06-19T04:07:40;100717.09;;;22.86;67.64
45285;BME280;31026;43.780;25.948;2023-06-19T04:10:09;100698.56;;;22.91;67.36
45285;BME280;31026;43.780;25.948;2023-06-19T04:12:37;100702.63;;;22.95;67.48
45285;BME280;31026;43.780;25.948;2023-06-19T04:15:06;100705.97;;;22.89;67.70
45285;BME280;31026;43.780;25.948;2023-06-19T04:17:37;100687.88;;;22.73;67.85
45285;BME280;31026;43.780;25.948;2023-06-19T04:20:05;100690.69;;;22.63;68.76
45285;BME280;31026;43.780;25.948;2023-06-19T04:22:36;100690.38;;;22.67;68.31
45285;BME280;31026;43.780;25.948;2023-06-19T04:25:05;100699.47;;;22.66;68.31
45285;BME280;31026;43.780;25.948;2023-06-19T04:27:33;100704.69;;;22.67;68.95
45285;BME280;31026;43.780;25.948;2023-06-19T04:30:02;100701.16;;;22.67;68.78
45285;BME280;31026;43.780;25.948;2023-06-19T04:32:31;100701.00;;;22.68;68.64
45285;BME280;31026;43.780;25.948;2023-06-19T04:35:02;100701.88;;;22.77;68.85
45285;BME280;31026;43.780;25.948;2023-06-19T04:37:31;100717.53;;;22.73;69.41
45285;BME280;31026;43.780;25.948;2023-06-19T04:39:59;100712.84;;;22.83;69.31
45285;BME280;31026;43.780;25.948;2023-06-19T04:42:28;100703.97;;;22.99;68.96
45285;BME280;31026;43.780;25.948;2023-06-19T04:44:57;100709.19;;;22.93;68.79
45285;BME280;31026;43.780;25.948;2023-06-19T04:47:25;100705.13;;;22.89;68.73
45285;BME280;31026;43.780;25.948;2023-06-19T04:49:53;100713.25;;;22.97;68.32
45285;BME280;31026;43.780;25.948;2023-06-19T04:52:24;100718.69;;;23.05;68.34
45285;BME280;31026;43.780;25.948;2023-06-19T04:54:53;100725.28;;;23.11;68.51
45285;BME280;31026;43.780;25.948;2023-06-19T04:57:22;100717.88;;;23.13;67.90
45285;BME280;31026;43.780;25.948;2023-06-19T04:59:50;100726.28;;;23.10;69.65
45285;BME280;31026;43.780;25.948;2023-06-19T05:02:18;100732.34;;;23.12;69.01
45285;BME280;31026;43.780;25.948;2023-06-19T05:04:49;100729.50;;;23.13;68.61
45285;BME280;31026;43.780;25.948;2023-06-19T05:07:17;100737.13;;;23.18;68.55
45285;BME280;31026;43.780;25.948;2023-06-19T05:09:48;100742.19;;;23.21;68.03
45285;BME280;31026;43.780;25.948;2023-06-19T05:12:17;100740.13;;;23.15;68.54
45285;BME280;31026;43.780;25.948;2023-06-19T05:14:45;100741.84;;;23.16;68.67
45285;BME280;31026;43.780;25.948;2023-06-19T05:17:14;100748.06;;;23.08;69.08
45285;BME280;31026;43.780;25.948;2023-06-19T05:19:42;100739.31;;;23.22;68.34
45285;BME280;31026;43.780;25.948;2023-06-19T05:22:10;100744.84;;;23.13;68.78
45285;BME280;31026;43.780;25.948;2023-06-19T05:24:38;100744.72;;;23.22;68.25
45285;BME280;31026;43.780;25.948;2023-06-19T05:27:09;100744.94;;;23.46;67.43
45285;BME280;31026;43.780;25.948;2023-06-19T05:29:38;100737.50;;;23.39;67.66
45285;BME280;31026;43.780;25.948;2023-06-19T05:32:06;100745.56;;;23.23;68.22
45285;BME280;31026;43.780;25.948;2023-06-19T05:34:34;100723.16;;;23.39;67.74
45285;BME280;31026;43.780;25.948;2023-06-19T05:37:03;100729.34;;;23.15;70.05
45285;BME280;31026;43.780;25.948;2023-06-19T05:39:31;100743.25;;;23.45;67.94
45285;BME280;31026;43.780;25.948;2023-06-19T05:41:59;100770.53;;;23.25;69.36
45285;BME280;31026;43.780;25.948;2023-06-19T05:44:30;100736.50;;;23.32;68.65
45285;BME280;31026;43.780;25.948;2023-06-19T05:46:59;100739.84;;;23.26;70.81
45285;BME280;31026;43.780;25.948;2023-06-19T05:49:27;100746.78;;;23.45;69.91
45285;BME280;31026;43.780;25.948;2023-06-19T05:51:55;100759.06;;;23.31;70.60
45285;BME280;31026;43.780;25.948;2023-06-19T05:54:25;100760.25;;;23.29;70.59
45285;BME280;31026;43.780;25.948;2023-06-19T05:56:53;100750.78;;;23.25;70.16
45285;BME280;31026;43.780;25.948;2023-06-19T05:59:21;100758.59;;;23.36;70.28
45285;BME280;31026;43.780;25.948;2023-06-19T06:01:52;100762.47;;;23.41;69.48
45285;BME280;31026;43.780;25.948;2023-06-19T06:04:21;100758.47;;;23.54;69.64
45285;BME280;31026;43.780;25.948;2023-06-19T06:06:49;100753.59;;;23.74;69.00
45285;BME280;31026;43.780;25.948;2023-06-19T06:09:18;100756.75;;;23.53;69.95
45285;BME280;31026;43.780;25.948;2023-06-19T06:11:46;100755.63;;;23.63;69.60
45285;BME280;31026;43.780;25.948;2023-06-19T06:14:14;100753.34;;;23.34;70.57
45285;BME280;31026;43.780;25.948;2023-06-19T06:16:43;100760.13;;;23.47;69.94
45285;BME280;31026;43.780;25.948;2023-06-19T06:19:14;100748.16;;;23.49;69.67
45285;BME280;31026;43.780;25.948;2023-06-19T06:21:42;100752.72;;;23.49;70.26
45285;BME280;31026;43.780;25.948;2023-06-19T06:24:10;100749.69;;;23.60;69.18
45285;BME280;31026;43.780;25.948;2023-06-19T06:26:39;100749.19;;;23.48;70.36
45285;BME280;31026;43.780;25.948;2023-06-19T06:29:07;100765.88;;;23.52;68.96
45285;BME280;31026;43.780;25.948;2023-06-19T06:31:37;100755.41;;;23.57;68.38
45285;BME280;31026;43.780;25.948;2023-06-19T06:34:06;100758.13;;;23.57;69.73
45285;BME280;31026;43.780;25.948;2023-06-19T06:36:37;100738.22;;;23.58;69.94
45285;BME280;31026;43.780;25.948;2023-06-19T06:39:05;100740.59;;;23.69;69.42
45285;BME280;31026;43.780;25.948;2023-06-19T06:41:34;100748.72;;;23.77;68.96
45285;BME280;31026;43.780;25.948;2023-06-19T06:44:02;100757.50;;;23.79;68.94
45285;BME280;31026;43.780;25.948;2023-06-19T06:46:31;100753.13;;;23.87;68.35
45285;BME280;31026;43.780;25.948;2023-06-19T06:48:59;100755.50;;;23.81;68.21
45285;BME280;31026;43.780;25.948;2023-06-19T06:51:27;100752.72;;;23.57;69.61
45285;BME280;31026;43.780;25.948;2023-06-19T06:53:58;100757.81;;;23.60;70.22
45285;BME280;31026;43.780;25.948;2023-06-19T06:56:26;100748.25;;;23.90;69.12
45285;BME280;31026;43.780;25.948;2023-06-19T06:58:55;100756.44;;;23.56;69.98
45285;BME280;31026;43.780;25.948;2023-06-19T07:01:23;100756.25;;;23.49;70.63
45285;BME280;31026;43.780;25.948;2023-06-19T07:03:55;100752.56;;;23.58;69.49
45285;BME280;31026;43.780;25.948;2023-06-19T07:06:23;100758.13;;;23.57;69.39
45285;BME280;31026;43.780;25.948;2023-06-19T07:08:51;100756.78;;;23.69;69.25
45285;BME280;31026;43.780;25.948;2023-06-19T07:11:22;100775.66;;;23.61;69.93
45285;BME280;31026;43.780;25.948;2023-06-19T07:13:50;100774.00;;;23.68;69.92
45285;BME280;31026;43.780;25.948;2023-06-19T07:16:18;100763.22;;;23.76;69.22
45285;BME280;31026;43.780;25.948;2023-06-19T07:18:47;100760.16;;;23.71;69.76
45285;BME280;31026;43.780;25.948;2023-06-19T07:21:15;100760.16;;;23.71;69.49
45285;BME280;31026;43.780;25.948;2023-06-19T07:23:44;100767.25;;;23.72;69.04
45285;BME280;31026;43.780;25.948;2023-06-19T07:26:14;100763.88;;;23.62;69.30
45285;BME280;31026;43.780;25.948;2023-06-19T07:28:45;100776.34;;;23.71;68.72
45285;BME280;31026;43.780;25.948;2023-06-19T07:31:13;100770.25;;;23.53;68.63
45285;BME280;31026;43.780;25.948;2023-06-19T07:33:41;100778.03;;;23.48;68.65
45285;BME280;31026;43.780;25.948;2023-06-19T07:36:10;100781.41;;;23.50;68.18
45285;BME280;31026;43.780;25.948;2023-06-19T07:38:41;100774.81;;;23.44;68.34
45285;BME280;31026;43.780;25.948;2023-06-19T07:41:10;100783.91;;;23.43;68.25
45285;BME280;31026;43.780;25.948;2023-06-19T07:43:38;100789.84;;;23.55;67.32
45285;BME280;31026;43.780;25.948;2023-06-19T07:46:09;100779.41;;;23.68;66.89
45285;BME280;31026;43.780;25.948;2023-06-19T07:48:38;100782.69;;;23.88;66.36
45285;BME280;31026;43.780;25.948;2023-06-19T07:51:06;100776.69;;;23.60;66.99
45285;BME280;31026;43.780;25.948;2023-06-19T07:53:35;100795.59;;;23.60;67.10
45285;BME280;31026;43.780;25.948;2023-06-19T07:56:04;100773.34;;;23.66;66.69
45285;BME280;31026;43.780;25.948;2023-06-19T07:58:33;100787.81;;;23.65;67.29
45285;BME280;31026;43.780;25.948;2023-06-19T08:01:01;100789.16;;;23.61;67.26
45285;BME280;31026;43.780;25.948;2023-06-19T08:03:32;100791.31;;;23.41;67.84
45285;BME280;31026;43.780;25.948;2023-06-19T08:06:01;100777.69;;;23.59;67.23
45285;BME280;31026;43.780;25.948;2023-06-19T08:08:29;100786.75;;;23.41;67.48
45285;BME280;31026;43.780;25.948;2023-06-19T08:10:57;100789.44;;;23.41;68.17
45285;BME280;31026;43.780;25.948;2023-06-19T08:13:26;100770.41;;;23.43;67.97
45285;BME280;31026;43.780;25.948;2023-06-19T08:15:55;100783.38;;;23.39;68.54
45285;BME280;31026;43.780;25.948;2023-06-19T08:18:23;100778.72;;;23.50;69.13
45285;BME280;31026;43.780;25.948;2023-06-19T08:20:54;100787.53;;;23.26;68.85
45285;BME280;31026;43.780;25.948;2023-06-19T08:23:22;100793.72;;;23.52;68.03
45285;BME280;31026;43.780;25.948;2023-06-19T08:25:50;100771.28;;;23.52;68.15
45285;BME280;31026;43.780;25.948;2023-06-19T08:28:19;100784.59;;;23.53;67.92
45285;BME280;31026;43.780;25.948;2023-06-19T08:30:47;100795.53;;;23.43;67.53
45285;BME280;31026;43.780;25.948;2023-06-19T08:33:15;100782.41;;;23.49;67.45
45285;BME280;31026;43.780;25.948;2023-06-19T08:35:44;100781.72;;;23.55;68.37
45285;BME280;31026;43.780;25.948;2023-06-19T08:38:16;100789.81;;;23.47;66.89
45285;BME280;31026;43.780;25.948;2023-06-19T08:40:44;100786.72;;;23.25;68.51
45285;BME280;31026;43.780;25.948;2023-06-19T08:43:12;100786.41;;;23.36;68.23
45285;BME280;31026;43.780;25.948;2023-06-19T08:45:41;100791.84;;;23.53;67.52
45285;BME280;31026;43.780;25.948;2023-06-19T08:48:12;100788.66;;;23.57;67.71
45285;BME280;31026;43.780;25.948;2023-06-19T08:50:41;100784.81;;;23.60;67.67
45285;BME280;31026;43.780;25.948;2023-06-19T08:53:09;100768.25;;;23.63;67.64
45285;BME280;31026;43.780;25.948;2023-06-19T08:55:40;100777.53;;;23.60;67.71
45285;BME280;31026;43.780;25.948;2023-06-19T08:58:09;100786.16;;;23.64;67.58
45285;BME280;31026;43.780;25.948;2023-06-19T09:00:38;100777.03;;;23.65;67.69
45285;BME280;31026;43.780;25.948;2023-06-19T09:03:06;100778.72;;;23.66;67.83
45285;BME280;31026;43.780;25.948;2023-06-19T09:05:35;100779.06;;;23.63;67.63
45285;BME280;31026;43.780;25.948;2023-06-19T09:08:12;100782.44;;;23.65;67.74
45285;BME280;31026;43.780;25.948;2023-06-19T09:10:53;100780.75;;;23.72;67.63
45285;BME280;31026;43.780;25.948;2023-06-19T09:13:22;100779.56;;;23.67;67.57
45285;BME280;31026;43.780;25.948;2023-06-19T09:15:56;100785.13;;;23.65;67.75
45285;BME280;31026;43.780;25.948;2023-06-19T09:18:26;100791.03;;;23.60;67.73
45285;BME280;31026;43.780;25.948;2023-06-19T09:20:55;100794.25;;;23.64;67.86
45285;BME280;31026;43.780;25.948;2023-06-19T09:23:23;100797.81;;;23.73;67.34
45285;BME280;31026;43.780;25.948;2023-06-19T09:25:56;100787.00;;;23.73;67.53
45285;BME280;31026;43.780;25.948;2023-06-19T09:28:25;100780.75;;;23.64;67.82
45285;BME280;31026;43.780;25.948;2023-06-19T09:30:55;100777.00;;;23.57;67.96
45285;BME280;31026;43.780;25.948;2023-06-19T09:33:25;100778.72;;;23.58;68.01
45285;BME280;31026;43.780;25.948;2023-06-19T09:35:53;100756.91;;;23.43;67.83
45285;BME280;31026;43.780;25.948;2023-06-19T09:38:24;100776.69;;;23.60;67.73
45285;BME280;31026;43.780;25.948;2023-06-19T09:40:56;100780.25;;;23.69;67.71
45285;BME280;31026;43.780;25.948;2023-06-19T09:43:25;100781.75;;;23.71;67.44
45285;BME280;31026;43.780;25.948;2023-06-19T09:45:54;100778.56;;;23.68;67.40
45285;BME280;31026;43.780;25.948;2023-06-19T09:48:26;100766.22;;;23.65;67.58
45285;BME280;31026;43.780;25.948;2023-06-19T09:51:06;100773.16;;;23.68;67.49
45285;BME280;31026;43.780;25.948;2023-06-19T09:53:37;100774.69;;;23.70;67.35
45285;BME280;31026;43.780;25.948;2023-06-19T09:56:08;100763.88;;;23.70;67.52
45285;BME280;31026;43.780;25.948;2023-06-19T09:58:37;100762.69;;;23.73;67.53
45285;BME280;31026;43.780;25.948;2023-06-19T10:01:06;100761.50;;;23.75;67.72
45285;BME280;31026;43.780;25.948;2023-06-19T10:03:35;100762.38;;;23.76;67.18
45285;BME280;31026;43.780;25.948;2023-06-19T10:06:05;100756.31;;;23.74;67.41
45285;BME280;31026;43.780;25.948;2023-06-19T10:08:38;100752.81;;;23.81;67.05
45285;BME280;31026;43.780;25.948;2023-06-19T10:11:09;100747.56;;;23.80;67.23
45285;BME280;31026;43.780;25.948;2023-06-19T10:13:40;100753.38;;;23.51;68.03
45285;BME280;31026;43.780;25.948;2023-06-19T10:16:19;100736.22;;;23.76;67.32
45285;BME280;31026;43.780;25.948;2023-06-19T10:18:47;100729.94;;;23.59;67.95
45285;BME280;31026;43.780;25.948;2023-06-19T10:21:16;100741.59;;;23.60;67.97
45285;BME280;31026;43.780;25.948;2023-06-19T10:23:51;100746.34;;;23.66;67.62
45285;BME280;31026;43.780;25.948;2023-06-19T10:26:28;100732.16;;;23.64;67.67
45285;BME280;31026;43.780;25.948;2023-06-19T10:28:57;100741.59;;;23.60;67.62
45285;BME280;31026;43.780;25.948;2023-06-19T10:31:25;100724.72;;;23.58;67.81
45285;BME280;31026;43.780;25.948;2023-06-19T10:33:54;100732.16;;;23.56;67.70
45285;BME280;31026;43.780;25.948;2023-06-19T10:36:23;100721.69;;;23.61;67.75
45285;BME280;31026;43.780;25.948;2023-06-19T10:38:52;100726.56;;;23.57;67.82
45285;BME280;31026;43.780;25.948;2023-06-19T10:41:29;100744.47;;;23.58;67.80
45285;BME280;31026;43.780;25.948;2023-06-19T10:43:58;100739.22;;;23.57;68.06
45285;BME280;31026;43.780;25.948;2023-06-19T10:46:29;100713.75;;;23.51;67.97
45285;BME280;31026;43.780;25.948;2023-06-19T10:48:58;100728.41;;;23.49;68.07
45285;BME280;31026;43.780;25.948;2023-06-19T10:51:27;100733.13;;;23.47;67.99
45285;BME280;31026;43.780;25.948;2023-06-19T10:53:56;100751.72;;;23.50;67.94
45285;BME280;31026;43.780;25.948;2023-06-19T10:56:25;100748.66;;;23.53;67.74
45285;BME280;31026;43.780;25.948;2023-06-19T10:58:59;100748.34;;;23.48;67.97
45285;BME280;31026;43.780;25.948;2023-06-19T11:01:32;100758.78;;;23.42;68.17
45285;BME280;31026;43.780;25.948;2023-06-19T11:04:01;100754.38;;;23.41;68.22
45285;BME280;31026;43.780;25.948;2023-06-19T11:06:30;100749.16;;;23.40;68.35
45285;BME280;31026;43.780;25.948;2023-06-19T11:08:59;100740.25;;;23.48;67.91
45285;BME280;31026;43.780;25.948;2023-06-19T11:11:38;100739.19;;;23.32;67.90
45285;BME280;31026;43.780;25.948;2023-06-19T11:14:10;100744.91;;;23.29;67.82
45285;BME280;31026;43.780;25.948;2023-06-19T11:16:40;100745.44;;;23.49;66.94
45285;BME280;31026;43.780;25.948;2023-06-19T11:19:09;100735.81;;;23.30;67.56
45285;BME280;31026;43.780;25.948;2023-06-19T11:21:38;100749.69;;;23.52;67.06
45285;BME280;31026;43.780;25.948;2023-06-19T11:24:13;100742.75;;;23.57;66.95
45285;BME280;31026;43.780;25.948;2023-06-19T11:26:41;100761.34;;;23.69;66.53
45285;BME280;31026;43.780;25.948;2023-06-19T11:29:18;100752.06;;;23.63;66.62
45285;BME280;31026;43.780;25.948;2023-06-19T11:31:47;100748.53;;;23.71;66.26
45285;BME280;31026;43.780;25.948;2023-06-19T11:34:15;100759.16;;;23.64;66.20
45285;BME280;31026;43.780;25.948;2023-06-19T11:36:45;100741.94;;;23.65;66.17
45285;BME280;31026;43.780;25.948;2023-06-19T11:39:14;100753.53;;;23.41;67.76
45285;BME280;31026;43.780;25.948;2023-06-19T11:41:43;100754.72;;;23.47;67.04
45285;BME280;31026;43.780;25.948;2023-06-19T11:44:12;100750.63;;;23.26;66.88
45285;BME280;31026;43.780;25.948;2023-06-19T11:46:43;100735.59;;;23.23;67.08
45285;BME280;31026;43.780;25.948;2023-06-19T11:49:12;100732.75;;;23.33;66.99
45285;BME280;31026;43.780;25.948;2023-06-19T11:51:42;100732.47;;;23.45;67.01
45285;BME280;31026;43.780;25.948;2023-06-19T11:54:11;100727.22;;;23.35;67.38
45285;BME280;31026;43.780;25.948;2023-06-19T11:56:40;100720.63;;;23.29;67.55
45285;BME280;31026;43.780;25.948;2023-06-19T11:59:08;100703.47;;;23.55;67.12
45285;BME280;31026;43.780;25.948;2023-06-19T12:01:37;100686.59;;;23.45;67.19
45285;BME280;31026;43.780;25.948;2023-06-19T12:04:07;100682.69;;;23.31;67.82
45285;BME280;31026;43.780;25.948;2023-06-19T12:06:37;100681.88;;;23.55;67.31
45285;BME280;31026;43.780;25.948;2023-06-19T12:09:05;100673.94;;;23.61;66.92
45285;BME280;31026;43.780;25.948;2023-06-19T12:11:35;100672.25;;;23.69;66.33
45285;BME280;31026;43.780;25.948;2023-06-19T12:14:03;100656.88;;;23.36;67.31
45285;BME280;31026;43.780;25.948;2023-06-19T12:16:31;100664.97;;;23.28;65.75
45285;BME280;31026;43.780;25.948;2023-06-19T12:19:00;100656.00;;;23.11;67.13
45285;BME280;31026;43.780;25.948;2023-06-19T12:21:31;100661.25;;;23.21;66.70
45285;BME280;31026;43.780;25.948;2023-06-19T12:23:59;100677.47;;;23.46;65.49
45285;BME280;31026;43.780;25.948;2023-06-19T12:26:27;100668.38;;;23.47;65.71
45285;BME280;31026;43.780;25.948;2023-06-19T12:28:57;100685.91;;;23.42;64.98
45285;BME280;31026;43.780;25.948;2023-06-19T12:31:25;100678.34;;;23.54;65.27
45285;BME280;31026;43.780;25.948;2023-06-19T12:33:53;100676.16;;;23.58;65.41
45285;BME280;31026;43.780;25.948;2023-06-19T12:36:24;100664.81;;;23.71;64.83
45285;BME280;31026;43.780;25.948;2023-06-19T12:38:55;100689.16;;;23.79;64.80
45285;BME280;31026;43.780;25.948;2023-06-19T12:41:23;100682.91;;;23.78;64.91
45285;BME280;31026;43.780;25.948;2023-06-19T12:43:51;100683.88;;;23.61;65.28
45285;BME280;31026;43.780;25.948;2023-06-19T12:46:20;100695.38;;;23.63;64.98
45285;BME280;31026;43.780;25.948;2023-06-19T12:48:50;100672.78;;;23.80;64.38
45285;BME280;31026;43.780;25.948;2023-06-19T12:51:18;100667.38;;;23.80;64.80